Time;durP1;ratioP1;P1;durP2;ratioP2;P2;SDS_P1;SDS_P2;PMS_P1;PMS_P2;Temp;Humidity;BMP_temperature;BMP_pressure;BME280_temperature;BME280_humidity;BME280_pressure;Samples;Min_cycle;Max_cycle;Signal;HPM_P1;HPM_P2
2023/07/23 00:02:17;;;;;;;2.50;1.23;;;25.70;41.00;;;;;;2527724;54;20988;-65
2023/07/23 00:04:44;;;;;;;9.07;1.10;;;25.70;41.00;;;;;;2292169;55;20969;-67
2023/07/23 00:07:10;;;;;;;2.53;1.00;;;25.70;41.00;;;;;;2528308;54;20995;-66
2023/07/23 00:09:36;;;;;;;2.47;1.10;;;25.60;40.90;;;;;;2526867;54;20944;-66
2023/07/23 00:12:03;;;;;;;2.17;0.90;;;25.60;40.80;;;;;;2527863;54;20900;-66
2023/07/23 00:14:29;;;;;;;2.08;0.88;;;25.60;40.80;;;;;;2528351;54;20880;-66
2023/07/23 00:16:56;;;;;;;1.83;0.88;;;25.60;40.70;;;;;;2290124;55;22183;-66
2023/07/23 00:19:23;;;;;;;2.17;0.93;;;25.60;40.70;;;;;;2292513;55;21704;-66
2023/07/23 00:21:50;;;;;;;2.53;1.00;;;25.60;40.70;;;;;;2526355;54;20928;-68
2023/07/23 00:24:17;;;;;;;1.92;0.90;;;25.50;40.50;;;;;;2292684;55;21019;-67
2023/07/23 00:26:43;;;;;;;3.22;1.17;;;25.50;40.40;;;;;;2292343;55;21000;-67
2023/07/23 00:29:10;;;;;;;2.37;1.00;;;25.50;40.40;;;;;;2527700;54;21505;-66
2023/07/23 00:31:36;;;;;;;2.30;1.00;;;25.40;40.30;;;;;;2517159;54;20977;-65
2023/07/23 00:34:06;;;;;;;2.40;1.02;;;25.40;40.30;;;;;;2278758;55;21646;-66
2023/07/23 00:36:32;;;;;;;2.65;1.00;;;25.40;40.40;;;;;;2292744;55;21080;-64
2023/07/23 00:38:59;;;;;;;2.70;1.00;;;25.30;40.30;;;;;;2526294;54;21034;-66
2023/07/23 00:41:25;;;;;;;2.22;1.00;;;25.30;40.40;;;;;;2277543;55;20958;-69
2023/07/23 00:43:52;;;;;;;2.40;1.00;;;25.20;40.60;;;;;;2515263;54;21430;-66
2023/07/23 00:46:18;;;;;;;2.10;1.00;;;25.20;40.70;;;;;;2292472;55;20944;-67
2023/07/23 00:48:46;;;;;;;2.05;0.80;;;25.20;40.80;;;;;;2292006;55;20917;-67
2023/07/23 00:51:12;;;;;;;2.00;0.90;;;25.10;40.90;;;;;;2292371;55;21846;-66
2023/07/23 00:53:38;;;;;;;2.42;1.10;;;25.10;40.90;;;;;;2292763;55;21138;-69
2023/07/23 00:56:06;;;;;;;1.62;0.75;;;25.00;40.90;;;;;;2292833;56;20960;-66
2023/07/23 00:58:32;;;;;;;1.98;0.80;;;25.00;41.00;;;;;;2527865;54;20948;-67
2023/07/23 01:00:59;;;;;;;2.40;0.98;;;25.00;41.10;;;;;;2292429;55;20952;-66
2023/07/23 01:03:25;;;;;;;2.22;0.85;;;24.90;41.00;;;;;;2293335;55;21032;-68
2023/07/23 01:05:52;;;;;;;1.60;0.70;;;24.90;41.00;;;;;;2292123;55;20968;-68
2023/07/23 01:08:19;;;;;;;1.67;0.70;;;24.80;41.00;;;;;;2522317;54;20993;-67
2023/07/23 01:10:46;;;;;;;2.08;0.77;;;24.80;41.00;;;;;;2507137;54;20953;-68
2023/07/23 01:13:12;;;;;;;1.55;0.60;;;24.70;41.00;;;;;;2273526;55;20904;-66
2023/07/23 01:15:39;;;;;;;1.85;0.65;;;24.60;40.90;;;;;;2292266;55;21773;-69
2023/07/23 01:18:05;;;;;;;2.55;0.93;;;24.60;41.00;;;;;;2292732;55;20936;-69
2023/07/23 01:20:32;;;;;;;2.03;0.80;;;24.50;41.00;;;;;;2528332;54;20968;-66
2023/07/23 01:22:58;;;;;;;2.00;0.90;;;24.40;41.00;;;;;;2292062;55;20925;-67
2023/07/23 01:25:24;;;;;;;1.55;0.73;;;24.30;41.00;;;;;;2527545;54;20960;-69
2023/07/23 01:27:52;;;;;;;1.85;0.80;;;24.30;41.00;;;;;;2527600;54;21020;-67
2023/07/23 01:30:19;;;;;;;2.40;1.02;;;24.20;41.10;;;;;;2527650;54;20943;-67
2023/07/23 01:32:46;;;;;;;2.20;0.82;;;24.10;41.10;;;;;;2292442;55;20992;-66
2023/07/23 01:35:15;;;;;;;1.42;0.70;;;24.00;41.10;;;;;;2509942;54;21877;-66
2023/07/23 01:37:43;;;;;;;1.85;0.80;;;23.90;41.10;;;;;;2519878;54;20936;-65
2023/07/23 01:40:10;;;;;;;1.40;0.70;;;23.90;41.20;;;;;;2292529;55;20948;-66
2023/07/23 01:42:36;;;;;;;2.58;0.80;;;23.80;41.30;;;;;;2527073;54;21016;-65
2023/07/23 01:45:04;;;;;;;3.67;1.00;;;23.70;41.30;;;;;;2293183;55;20936;-66
2023/07/23 01:47:30;;;;;;;2.53;0.90;;;23.60;41.40;;;;;;2527835;54;21730;-67
2023/07/23 01:49:58;;;;;;;1.87;0.70;;;23.50;41.40;;;;;;2273810;55;21036;-68
2023/07/23 01:52:24;;;;;;;2.08;0.88;;;23.50;41.40;;;;;;2293669;55;20932;-66
2023/07/23 01:54:51;;;;;;;2.05;0.85;;;23.40;41.50;;;;;;2528588;54;20904;-66
2023/07/23 01:57:18;;;;;;;1.98;0.88;;;23.30;41.50;;;;;;2293402;55;20951;-66
2023/07/23 01:59:45;;;;;;;2.28;0.90;;;23.20;41.50;;;;;;2292906;55;21621;-66
2023/07/23 02:02:12;;;;;;;2.20;1.00;;;23.20;41.80;;;;;;2292850;55;22324;-66
2023/07/23 02:04:38;;;;;;;2.47;0.93;;;23.10;42.00;;;;;;2517820;54;20970;-66
2023/07/23 02:07:05;;;;;;;2.60;0.98;;;23.00;41.90;;;;;;2510578;54;20964;-69
2023/07/23 02:09:32;;;;;;;2.20;0.80;;;23.00;42.00;;;;;;2528005;54;20976;-67
2023/07/23 02:11:59;;;;;;;1.80;0.80;;;22.90;42.00;;;;;;2291760;55;21021;-66
2023/07/23 02:14:26;;;;;;;2.30;0.90;;;22.80;42.00;;;;;;2501585;54;21098;-66
2023/07/23 02:16:52;;;;;;;2.58;1.08;;;22.70;42.00;;;;;;2292724;56;20987;-66
2023/07/23 02:19:19;;;;;;;1.73;0.77;;;22.70;42.10;;;;;;2501045;54;20977;-67
2023/07/23 02:21:46;;;;;;;2.67;0.90;;;22.60;42.10;;;;;;2528907;54;20917;-65
2023/07/23 02:24:12;;;;;;;1.92;0.85;;;22.60;42.20;;;;;;2293413;55;20940;-66
2023/07/23 02:26:38;;;;;;;2.17;1.00;;;22.50;42.20;;;;;;2528752;54;20953;-66
2023/07/23 02:29:07;;;;;;;2.20;0.80;;;22.40;42.20;;;;;;2293903;55;21524;-68
2023/07/23 02:31:34;;;;;;;2.72;0.95;;;22.40;42.40;;;;;;2293166;55;21054;-65
2023/07/23 02:34:00;;;;;;;2.58;0.82;;;22.30;42.40;;;;;;2290514;55;21713;-68
2023/07/23 02:36:27;;;;;;;2.45;0.90;;;22.30;42.50;;;;;;2292785;55;20953;-66
2023/07/23 02:38:53;;;;;;;2.17;0.90;;;22.20;42.50;;;;;;2528094;54;20933;-65
2023/07/23 02:41:19;;;;;;;2.25;0.95;;;22.10;42.50;;;;;;2292224;55;20975;-65
2023/07/23 02:43:47;;;;;;;2.10;0.88;;;22.10;42.60;;;;;;2292733;55;20980;-65
2023/07/23 02:46:14;;;;;;;2.83;0.90;;;22.00;42.70;;;;;;2528195;54;20987;-66
2023/07/23 02:48:40;;;;;;;2.30;0.90;;;22.00;42.80;;;;;;2291924;55;20905;-65
2023/07/23 02:51:07;;;;;;;2.10;0.90;;;21.90;42.80;;;;;;2527904;54;21403;-65
2023/07/23 02:53:34;;;;;;;2.28;0.95;;;21.90;42.80;;;;;;2528129;54;20936;-66
2023/07/23 02:56:01;;;;;;;2.40;0.82;;;21.80;42.90;;;;;;2292663;56;21442;-65
2023/07/23 02:58:27;;;;;;;1.73;0.70;;;21.80;43.00;;;;;;2293132;55;20968;-64
2023/07/23 03:00:57;;;;;;;1.83;0.82;;;21.80;43.00;;;;;;2292247;55;21441;-66
2023/07/23 03:03:24;;;;;;;4.78;1.10;;;21.70;43.10;;;;;;2293582;55;21032;-65
2023/07/23 03:05:50;;;;;;;3.17;1.10;;;21.80;43.30;;;;;;2292879;55;20901;-66
2023/07/23 03:08:16;;;;;;;2.10;0.90;;;21.70;43.20;;;;;;2292909;55;21513;-66
2023/07/23 03:10:46;;;;;;;2.37;0.98;;;21.70;43.30;;;;;;2292643;56;20904;-68
2023/07/23 03:13:13;;;;;;;2.05;0.90;;;21.70;43.40;;;;;;2292764;55;20905;-66
2023/07/23 03:15:39;;;;;;;2.35;1.08;;;21.60;43.40;;;;;;2527945;54;20888;-65
2023/07/23 03:18:06;;;;;;;1.65;0.80;;;21.60;43.50;;;;;;2513478;54;20998;-66
2023/07/23 03:20:33;;;;;;;2.08;0.90;;;21.60;43.50;;;;;;2282134;55;20956;-66
2023/07/23 03:22:59;;;;;;;2.30;0.90;;;21.60;43.60;;;;;;2293142;55;20972;-65
2023/07/23 03:25:26;;;;;;;2.22;0.90;;;21.50;43.50;;;;;;2292820;56;20913;-68
2023/07/23 03:27:53;;;;;;;3.97;1.02;;;21.50;43.60;;;;;;2527862;54;21743;-65
2023/07/23 03:30:19;;;;;;;2.92;0.80;;;21.50;43.70;;;;;;2283687;55;21029;-68
2023/07/23 03:32:46;;;;;;;2.33;1.00;;;21.50;43.70;;;;;;2284704;55;20960;-65
2023/07/23 03:35:14;;;;;;;2.28;0.88;;;21.40;43.80;;;;;;2292385;56;20928;-66
2023/07/23 03:37:41;;;;;;;2.35;1.00;;;21.40;43.80;;;;;;2292969;56;20916;-65
2023/07/23 03:40:11;;;;;;;2.42;0.73;;;21.40;44.00;;;;;;2292819;56;20912;-67
2023/07/23 03:42:38;;;;;;;1.87;0.80;;;21.40;44.00;;;;;;2527994;54;20913;-66
2023/07/23 03:45:06;;;;;;;1.70;0.80;;;21.40;44.10;;;;;;2291805;55;20901;-65
2023/07/23 03:47:33;;;;;;;1.92;0.80;;;21.30;44.10;;;;;;2527716;54;20989;-65
2023/07/23 03:49:59;;;;;;;2.15;0.90;;;21.30;44.10;;;;;;2527484;54;20913;-65
2023/07/23 03:52:25;;;;;;;2.37;0.98;;;21.30;44.10;;;;;;2276383;55;21395;-68
2023/07/23 03:54:52;;;;;;;2.40;1.00;;;21.30;44.20;;;;;;2291310;55;21802;-71
2023/07/23 03:57:18;;;;;;;2.10;0.98;;;21.30;44.20;;;;;;2528105;54;21541;-68
2023/07/23 03:59:45;;;;;;;2.45;0.95;;;21.30;44.30;;;;;;2527916;54;20940;-70
2023/07/23 04:02:12;;;;;;;2.40;0.90;;;21.20;44.40;;;;;;2431288;54;2580744;-64
2023/07/23 04:04:41;;;;;;;1.87;0.82;;;21.20;44.50;;;;;;2527951;54;20960;-67
2023/07/23 04:07:07;;;;;;;2.22;0.90;;;21.20;44.60;;;;;;2527579;54;20916;-66
2023/07/23 04:09:35;;;;;;;2.25;0.90;;;21.20;44.60;;;;;;2292317;56;20959;-66
2023/07/23 04:12:02;;;;;;;4.10;0.98;;;21.10;44.50;;;;;;2292725;55;20916;-66
2023/07/23 04:14:29;;;;;;;2.17;0.75;;;21.20;44.70;;;;;;2292530;55;20924;-66
2023/07/23 04:16:55;;;;;;;2.33;1.00;;;21.20;44.70;;;;;;2528079;54;20943;-67
2023/07/23 04:19:24;;;;;;;1.92;0.82;;;21.20;44.70;;;;;;2293314;55;20972;-68
2023/07/23 04:21:50;;;;;;;2.50;1.00;;;21.10;44.70;;;;;;2507221;54;20989;-67
2023/07/23 04:24:17;;;;;;;2.35;1.00;;;21.10;44.80;;;;;;2272390;55;20928;-68
2023/07/23 04:26:43;;;;;;;3.75;0.75;;;21.10;44.90;;;;;;2292786;55;20933;-66
2023/07/23 04:29:10;;;;;;;2.35;1.00;;;21.10;45.00;;;;;;2527464;54;20960;-66
2023/07/23 04:31:37;;;;;;;2.20;0.95;;;21.10;45.10;;;;;;2274949;55;21776;-70
2023/07/23 04:34:03;;;;;;;1.95;0.75;;;21.10;45.20;;;;;;2273611;55;20950;-65
2023/07/23 04:36:32;;;;;;;2.20;0.90;;;21.10;45.20;;;;;;2293009;55;20896;-66
2023/07/23 04:39:00;;;;;;;1.87;0.85;;;21.10;45.30;;;;;;2292153;55;21356;-68
2023/07/23 04:41:27;;;;;;;1.48;0.77;;;21.10;45.20;;;;;;2527783;54;21072;-66
2023/07/23 04:43:53;;;;;;;2.28;0.95;;;21.10;45.30;;;;;;2292759;55;20984;-70
2023/07/23 04:46:20;;;;;;;2.60;1.10;;;21.10;45.50;;;;;;2283313;55;20950;-66
2023/07/23 04:48:46;;;;;;;1.87;0.88;;;21.10;45.50;;;;;;2517780;54;20992;-66
2023/07/23 04:51:12;;;;;;;1.83;0.70;;;21.10;45.50;;;;;;2527960;54;20928;-69
2023/07/23 04:53:39;;;;;;;2.05;0.85;;;21.10;45.60;;;;;;2295572;55;20940;-67
2023/07/23 04:56:07;;;;;;;2.17;0.95;;;21.10;45.60;;;;;;2526780;54;20916;-66
2023/07/23 04:58:33;;;;;;;2.10;0.90;;;21.10;45.70;;;;;;2275004;55;20972;-70
2023/07/23 05:01:06;;;;;;;2.40;1.10;;;21.10;45.80;;;;;;2293822;55;20980;-70
2023/07/23 05:03:32;;;;;;;2.10;0.90;;;21.10;46.10;;;;;;2293038;55;20952;-66
2023/07/23 05:06:01;;;;;;;1.87;0.80;;;21.10;45.90;;;;;;2527911;54;20913;-66
2023/07/23 05:08:28;;;;;;;2.65;0.90;;;21.20;46.20;;;;;;2528080;54;21017;-65
2023/07/23 05:11:01;;;;;;;3.20;1.00;;;21.20;46.20;;;;;;2528190;54;20971;-69
2023/07/23 05:13:29;;;;;;;2.15;1.00;;;21.20;46.50;;;;;;2528099;54;20991;-67
2023/07/23 05:15:56;;;;;;;2.42;1.00;;;21.20;46.50;;;;;;2292942;55;20920;-67
2023/07/23 05:18:24;;;;;;;2.62;1.20;;;21.30;46.60;;;;;;2512537;54;20925;-67
2023/07/23 05:20:50;;;;;;;3.05;1.17;;;21.30;46.80;;;;;;2283605;55;20924;-66
2023/07/23 05:23:17;;;;;;;2.42;1.17;;;21.30;47.00;;;;;;2292504;55;20924;-70
2023/07/23 05:25:44;;;;;;;2.70;1.23;;;21.40;47.20;;;;;;2528425;54;21662;-66
2023/07/23 05:28:11;;;;;;;2.33;1.00;;;21.40;47.20;;;;;;2292832;55;21868;-67
2023/07/23 05:30:38;;;;;;;2.28;1.00;;;21.50;47.20;;;;;;2528465;54;20889;-66
2023/07/23 05:33:04;;;;;;;2.22;0.90;;;21.50;47.10;;;;;;2293074;55;20904;-66
2023/07/23 05:35:33;;;;;;;2.60;1.12;;;21.60;47.10;;;;;;2292380;55;20999;-67
2023/07/23 05:37:59;;;;;;;2.97;1.33;;;21.70;47.20;;;;;;2292343;56;20992;-67
2023/07/23 05:40:26;;;;;;;2.78;1.10;;;21.80;47.30;;;;;;2291854;55;20924;-71
2023/07/23 05:42:54;;;;;;;2.37;0.98;;;21.80;47.40;;;;;;2528424;54;20904;-67
2023/07/23 05:45:20;;;;;;;2.80;1.20;;;21.90;47.50;;;;;;2292736;55;20968;-66
2023/07/23 05:47:46;;;;;;;2.22;1.00;;;22.00;47.50;;;;;;2292369;55;20933;-66
2023/07/23 05:50:13;;;;;;;2.85;1.20;;;22.00;47.40;;;;;;2501059;54;21049;-67
2023/07/23 05:52:40;;;;;;;2.80;1.35;;;22.10;47.40;;;;;;2293533;55;21012;-67
2023/07/23 05:55:06;;;;;;;2.28;1.05;;;22.10;47.30;;;;;;2275919;55;20941;-66
2023/07/23 05:57:33;;;;;;;2.55;1.08;;;22.20;47.40;;;;;;2526156;54;20968;-71
2023/07/23 05:59:59;;;;;;;2.28;1.05;;;22.20;47.50;;;;;;2292698;56;21008;-68
2023/07/23 06:02:25;;;;;;;2.60;1.00;;;22.30;47.30;;;;;;2292486;55;21460;-69
2023/07/23 06:04:52;;;;;;;2.30;1.00;;;22.30;47.20;;;;;;2527881;54;21911;-66
2023/07/23 06:07:18;;;;;;;2.83;1.17;;;22.40;47.20;;;;;;2527799;54;21410;-72
2023/07/23 06:09:44;;;;;;;2.83;0.90;;;22.50;47.30;;;;;;2285523;55;20982;-66
2023/07/23 06:12:11;;;;;;;2.85;1.20;;;22.50;47.30;;;;;;2502321;54;21064;-67
2023/07/23 06:14:38;;;;;;;2.95;1.27;;;22.60;47.50;;;;;;2527034;54;21039;-69
2023/07/23 06:17:04;;;;;;;3.40;1.50;;;22.60;47.50;;;;;;2293220;55;20940;-67
2023/07/23 06:19:30;;;;;;;2.72;1.05;;;22.70;47.50;;;;;;2522720;54;20952;-71
2023/07/23 06:21:57;;;;;;;2.80;1.20;;;22.70;47.50;;;;;;2292904;55;20984;-67
2023/07/23 06:24:23;;;;;;;2.95;1.27;;;22.80;47.60;;;;;;2292500;55;20916;-68
2023/07/23 06:26:49;;;;;;;2.60;1.10;;;22.80;47.70;;;;;;2528678;54;20977;-67
2023/07/23 06:29:16;;;;;;;3.50;1.50;;;22.80;47.70;;;;;;2528193;54;20912;-67
2023/07/23 06:31:42;;;;;;;2.35;1.08;;;22.90;47.70;;;;;;2526778;54;20940;-68
2023/07/23 06:34:09;;;;;;;3.37;1.23;;;22.90;47.50;;;;;;2528518;54;25505;-65
2023/07/23 06:36:35;;;;;;;2.12;1.10;;;23.00;47.50;;;;;;2276972;55;20974;-68
2023/07/23 06:39:02;;;;;;;2.45;1.20;;;23.10;47.50;;;;;;2525080;54;20944;-65
2023/07/23 06:41:29;;;;;;;3.00;1.33;;;23.10;47.50;;;;;;2292408;56;21016;-66
2023/07/23 06:43:57;;;;;;;2.60;1.30;;;23.20;47.50;;;;;;2292966;55;20956;-67
2023/07/23 06:46:23;;;;;;;2.40;1.23;;;23.30;47.50;;;;;;2292638;55;20972;-67
2023/07/23 06:48:50;;;;;;;2.28;1.00;;;23.30;47.50;;;;;;2294762;55;21485;-66
2023/07/23 06:51:16;;;;;;;2.47;1.15;;;23.40;47.50;;;;;;2291719;55;20916;-67
2023/07/23 06:53:45;;;;;;;3.12;1.50;;;23.50;47.50;;;;;;2524013;54;20893;-67
2023/07/23 06:56:13;;;;;;;2.62;1.30;;;23.50;47.50;;;;;;2274933;55;20896;-69
2023/07/23 06:58:39;;;;;;;2.78;1.35;;;23.50;47.50;;;;;;2272893;55;20948;-67
2023/07/23 07:01:06;;;;;;;2.60;1.20;;;23.60;47.50;;;;;;2528300;54;21051;-66
2023/07/23 07:03:33;;;;;;;2.97;1.48;;;23.70;47.50;;;;;;2527626;54;20989;-68
2023/07/23 07:06:01;;;;;;;2.47;1.17;;;23.80;47.50;;;;;;2292685;55;20972;-71
2023/07/23 07:08:28;;;;;;;3.53;1.50;;;23.80;47.30;;;;;;2292497;55;20909;-67
2023/07/23 07:10:58;;;;;;;2.37;1.10;;;23.90;47.40;;;;;;2292839;55;20944;-70
2023/07/23 07:13:24;;;;;;;2.62;1.08;;;24.00;47.40;;;;;;2527891;54;20944;-67
2023/07/23 07:15:51;;;;;;;2.80;1.40;;;24.10;47.40;;;;;;2293099;55;20988;-71
2023/07/23 07:18:17;;;;;;;2.78;1.17;;;24.20;47.30;;;;;;2276073;55;20989;-67
2023/07/23 07:20:44;;;;;;;2.50;1.10;;;24.20;47.10;;;;;;2291349;55;21075;-67
2023/07/23 07:23:10;;;;;;;2.40;1.10;;;24.30;47.20;;;;;;2277226;55;20981;-66
2023/07/23 07:25:36;;;;;;;2.30;1.05;;;24.40;47.20;;;;;;2523546;54;21767;-66
2023/07/23 07:28:03;;;;;;;3.30;1.30;;;24.50;47.20;;;;;;2292995;55;20920;-66
2023/07/23 07:30:30;;;;;;;3.47;1.20;;;24.60;47.30;;;;;;2292542;55;20928;-69
2023/07/23 07:32:56;;;;;;;2.60;1.12;;;24.70;47.30;;;;;;2526525;54;20933;-66
2023/07/23 07:35:23;;;;;;;2.50;1.08;;;24.80;47.20;;;;;;2293004;56;20964;-69
2023/07/23 07:37:49;;;;;;;2.55;1.20;;;24.90;47.20;;;;;;2528344;54;20940;-66
2023/07/23 07:40:16;;;;;;;3.12;1.30;;;25.00;47.10;;;;;;2527844;54;20947;-67
2023/07/23 07:42:45;;;;;;;3.10;1.02;;;25.20;47.10;;;;;;2527606;54;21008;-69
2023/07/23 07:45:12;;;;;;;3.40;1.12;;;25.30;47.00;;;;;;2527998;54;20988;-67
2023/07/23 07:47:38;;;;;;;2.72;1.15;;;25.40;46.90;;;;;;2526938;54;20940;-72
2023/07/23 07:50:07;;;;;;;2.78;1.20;;;25.50;46.80;;;;;;2519981;54;20977;-70
2023/07/23 07:52:33;;;;;;;3.08;1.33;;;25.60;46.70;;;;;;2277341;55;20960;-70
2023/07/23 07:55:00;;;;;;;2.55;1.20;;;25.70;46.70;;;;;;2292473;55;21456;-69
2023/07/23 07:57:29;;;;;;;2.90;1.40;;;25.80;46.70;;;;;;2292055;55;20992;-68
2023/07/23 08:00:06;;;;;;;2.72;1.10;;;26.00;46.60;;;;;;2293004;55;21425;-69
2023/07/23 08:02:32;;;;;;;3.50;1.30;;;26.00;46.40;;;;;;2292416;55;21520;-69
2023/07/23 08:04:59;;;;;;;3.00;1.45;;;26.20;46.40;;;;;;2292749;55;20904;-71
2023/07/23 08:07:25;;;;;;;3.10;1.30;;;26.30;46.40;;;;;;2292401;55;20908;-69
2023/07/23 08:09:53;;;;;;;2.92;1.17;;;26.40;46.20;;;;;;2291956;55;20954;-67
2023/07/23 08:12:19;;;;;;;2.37;1.20;;;26.50;46.30;;;;;;2504947;54;20956;-68
2023/07/23 08:14:46;;;;;;;2.22;1.00;;;26.60;46.00;;;;;;2292285;55;20941;-70
2023/07/23 08:17:12;;;;;;;2.10;1.00;;;26.70;45.90;;;;;;2528074;54;21818;-68
2023/07/23 08:19:39;;;;;;;2.10;1.00;;;26.70;45.80;;;;;;2291535;55;21680;-69
2023/07/23 08:22:06;;;;;;;2.55;1.23;;;26.90;45.90;;;;;;2527308;54;20897;-69
2023/07/23 08:24:35;;;;;;;2.40;1.10;;;27.00;45.70;;;;;;2292348;56;20912;-69
2023/07/23 08:27:02;;;;;;;2.75;1.30;;;27.10;45.60;;;;;;2292780;56;20937;-68
2023/07/23 08:29:28;;;;;;;2.92;1.48;;;27.20;45.40;;;;;;2290965;55;20989;-69
2023/07/23 08:31:55;;;;;;;2.50;1.40;;;27.20;45.20;;;;;;2500543;54;20928;-68
2023/07/23 08:34:22;;;;;;;2.40;1.12;;;27.30;45.00;;;;;;2527529;54;20909;-70
2023/07/23 08:36:49;;;;;;;2.75;1.30;;;27.40;44.80;;;;;;2292171;55;21011;-72
2023/07/23 08:39:16;;;;;;;3.20;1.17;;;27.50;44.70;;;;;;2528347;54;21748;-69
2023/07/23 08:46:33;;;;;;;2.10;0.93;;;27.60;44.70;;;;;;2527253;54;21063;-70
2023/07/23 08:49:09;;;;;;;1.95;0.80;;;27.80;44.50;;;;;;2292559;55;20936;-70
2023/07/23 08:51:43;;;;;;;1.75;0.85;;;27.90;44.10;;;;;;2513544;54;20982;-69
2023/07/23 08:54:11;;;;;;;1.80;0.90;;;28.00;43.80;;;;;;2496910;54;21023;-68
2023/07/23 08:56:38;;;;;;;2.20;1.00;;;28.00;43.70;;;;;;2292338;55;20944;-71
2023/07/23 08:59:08;;;;;;;2.95;0.98;;;28.10;43.50;;;;;;2293190;55;20936;-70
2023/07/23 09:01:39;;;;;;;2.45;1.02;;;28.10;43.30;;;;;;2291664;55;21389;-68
2023/07/23 09:04:10;;;;;;;2.20;1.00;;;28.20;43.20;;;;;;2527698;54;20985;-69
2023/07/23 09:06:36;;;;;;;2.55;1.20;;;28.30;42.90;;;;;;2527527;54;20932;-68
2023/07/23 09:09:06;;;;;;;1.75;0.85;;;28.30;42.90;;;;;;2527738;54;20901;-67
2023/07/23 09:11:32;;;;;;;2.25;1.15;;;28.30;42.80;;;;;;2292193;55;20904;-68
2023/07/23 09:14:00;;;;;;;2.45;1.08;;;28.40;42.80;;;;;;2527586;54;20941;-71
2023/07/23 09:16:26;;;;;;;2.40;1.23;;;28.40;42.80;;;;;;2527329;54;20915;-74
2023/07/23 09:18:52;;;;;;;4.00;1.20;;;28.40;42.50;;;;;;2293132;55;20967;-68
2023/07/23 09:21:23;;;;;;;2.25;1.05;;;28.50;42.60;;;;;;2293147;55;20908;-69
2023/07/23 09:23:54;;;;;;;3.15;1.45;;;28.50;42.50;;;;;;2528838;54;20936;-69
2023/07/23 09:26:22;;;;;;;2.90;1.27;;;28.50;42.30;;;;;;2528223;54;20948;-71
2023/07/23 09:28:53;;;;;;;2.97;1.10;;;28.60;42.10;;;;;;2528228;54;21441;-71
2023/07/23 09:31:26;;;;;;;2.10;1.00;;;28.60;42.00;;;;;;2292699;55;20920;-68
2023/07/23 09:33:57;;;;;;;3.30;1.37;;;28.60;41.80;;;;;;2527585;54;20933;-68
2023/07/23 09:36:27;;;;;;;5.00;1.50;;;28.60;41.80;;;;;;2527880;54;20917;-68
2023/07/23 09:39:04;;;;;;;3.37;1.27;;;28.70;41.70;;;;;;2292887;56;21517;-69
2023/07/23 09:41:38;;;;;;;3.05;1.02;;;28.70;41.70;;;;;;2293019;55;21018;-70
2023/07/23 09:44:09;;;;;;;2.45;1.08;;;28.70;41.70;;;;;;2528036;54;20949;-67
2023/07/23 09:46:37;;;;;;;3.20;1.45;;;28.70;41.70;;;;;;2526719;54;21063;-69
2023/07/23 09:49:04;;;;;;;2.75;1.20;;;28.80;41.70;;;;;;2528028;54;20960;-70
2023/07/23 09:51:33;;;;;;;2.65;1.20;;;28.80;41.70;;;;;;2527244;54;21000;-68
2023/07/23 09:54:00;;;;;;;2.85;1.40;;;28.80;41.80;;;;;;2292538;55;20979;-70
2023/07/23 09:56:26;;;;;;;2.83;1.60;;;28.90;41.70;;;;;;2292547;55;21386;-71
2023/07/23 09:58:53;;;;;;;2.25;1.10;;;28.90;41.60;;;;;;2292757;55;21063;-70
2023/07/23 10:01:20;;;;;;;3.22;1.17;;;28.90;41.50;;;;;;2499242;54;20973;-68
2023/07/23 10:03:49;;;;;;;2.85;1.48;;;29.00;41.50;;;;;;2510431;54;20924;-70
2023/07/23 10:06:20;;;;;;;2.85;1.48;;;29.00;41.30;;;;;;2527741;54;21421;-70
2023/07/23 10:08:48;;;;;;;3.97;1.40;;;29.10;41.30;;;;;;2292546;55;20916;-70
2023/07/23 10:11:15;;;;;;;3.25;1.52;;;29.10;41.20;;;;;;2292729;55;20932;-71
2023/07/23 10:13:42;;;;;;;2.22;1.10;;;29.10;41.00;;;;;;2291361;55;21632;-69
2023/07/23 10:16:09;;;;;;;4.78;1.20;;;29.20;41.00;;;;;;2509551;54;21045;-71
2023/07/23 10:18:46;;;;;;;2.90;1.23;;;29.20;41.10;;;;;;2275317;55;20924;-68
2023/07/23 10:21:13;;;;;;;2.53;1.50;;;29.30;41.20;;;;;;2291602;55;20976;-69
2023/07/23 10:23:40;;;;;;;2.90;1.40;;;29.30;41.20;;;;;;2291200;55;20973;-71
2023/07/23 10:26:29;;;;;;;2.95;1.33;;;29.40;41.00;;;;;;2527922;54;21343;-68
2023/07/23 10:29:11;;;;;;;2.70;1.20;;;29.40;40.80;;;;;;2527007;54;20964;-69
2023/07/23 10:31:38;;;;;;;;;;;29.50;40.90;;;;;;2530834;54;21024;-69
2023/07/23 10:40:53;;;;;;;2.28;1.15;;;29.60;40.90;;;;;;2292023;55;20093;-70
2023/07/23 10:43:19;;;;;;;1.85;0.80;;;29.70;40.60;;;;;;2292447;56;21341;-71
2023/07/23 10:46:02;;;;;;;3.80;1.35;;;29.70;40.60;;;;;;2291864;55;21809;-73
2023/07/23 10:48:48;;;;;;;1.70;0.90;;;29.70;40.10;;;;;;2279012;55;21054;-70
2023/07/23 10:51:18;;;;;;;2.17;1.00;;;29.70;40.10;;;;;;2292701;55;21056;-69
2023/07/23 10:54:02;;;;;;;2.65;1.23;;;29.80;40.30;;;;;;2292172;56;21563;-71
2023/07/23 10:56:31;;;;;;;3.00;1.42;;;29.80;40.00;;;;;;2527088;54;20932;-69
2023/07/23 10:59:05;;;;;;;2.50;1.10;;;29.80;40.30;;;;;;2276339;55;21046;-72
2023/07/23 11:01:35;;;;;;;2.58;1.33;;;29.80;40.40;;;;;;2527105;54;20988;-70
2023/07/23 11:04:34;;;;;;;3.10;1.20;;;29.90;40.40;;;;;;2293287;55;20968;-70
2023/07/23 11:07:04;;;;;;;1.90;0.93;;;29.90;40.10;;;;;;2291671;55;21192;-69
2023/07/23 11:09:32;;;;;;;2.55;1.10;;;29.90;40.30;;;;;;2292359;55;20980;-72
2023/07/23 11:12:00;;;;;;;2.20;1.10;;;29.90;40.30;;;;;;2500011;54;20945;-70
2023/07/23 11:14:29;;;;;;;12.30;1.60;;;30.00;40.20;;;;;;2292394;55;21030;-69
2023/07/23 11:17:00;;;;;;;2.40;1.10;;;30.00;40.20;;;;;;2293665;55;21766;-70
2023/07/23 11:19:27;;;;;;;19.70;2.08;;;30.00;40.20;;;;;;2292244;55;21015;-70
2023/07/23 11:21:59;;;;;;;8.35;1.58;;;30.10;40.10;;;;;;2527130;54;21005;-70
2023/07/23 11:24:26;;;;;;;4.05;1.23;;;30.10;39.90;;;;;;2527423;54;21755;-69
2023/07/23 11:26:56;;;;;;;3.58;1.25;;;30.10;39.80;;;;;;2526959;54;21719;-70
2023/07/23 11:29:25;;;;;;;4.37;1.10;;;30.20;39.70;;;;;;2292134;55;20940;-68
2023/07/23 11:31:54;;;;;;;4.20;0.95;;;30.20;39.80;;;;;;2292691;55;20932;-69
2023/07/23 11:34:23;;;;;;;3.40;1.02;;;30.20;39.60;;;;;;2504347;54;21021;-71
2023/07/23 11:36:52;;;;;;;4.93;1.05;;;30.30;39.60;;;;;;2288997;55;20928;-70
2023/07/23 11:39:19;;;;;;;2.28;1.12;;;30.30;39.60;;;;;;2527652;54;20933;-70
2023/07/23 11:41:46;;;;;;;2.25;1.10;;;30.30;39.50;;;;;;2527273;54;20930;-70
2023/07/23 11:44:12;;;;;;;1.92;0.98;;;30.40;39.40;;;;;;2527284;54;21746;-69
2023/07/23 11:46:40;;;;;;;3.20;1.10;;;30.40;39.40;;;;;;2291509;55;20976;-71
2023/07/23 11:49:18;;;;;;;1.90;1.00;;;30.40;39.40;;;;;;2292314;55;21339;-69
2023/07/23 11:51:44;;;;;;;3.42;1.50;;;30.40;39.20;;;;;;2291817;55;20921;-69
2023/07/23 11:54:12;;;;;;;2.50;1.17;;;30.50;39.10;;;;;;2527962;54;21003;-69
2023/07/23 11:56:47;;;;;;;2.25;1.10;;;30.50;39.00;;;;;;2527652;54;21814;-69
2023/07/23 11:59:16;;;;;;;2.53;1.20;;;30.60;38.70;;;;;;2528002;54;21838;-69
2023/07/23 12:01:44;;;;;;;3.40;1.10;;;30.60;38.60;;;;;;2526664;54;21433;-67
2023/07/23 12:04:13;;;;;;;2.83;1.30;;;30.60;38.40;;;;;;2292862;55;20964;-69
2023/07/23 12:06:39;;;;;;;2.75;1.30;;;30.60;38.30;;;;;;2274197;55;21008;-69
2023/07/23 12:09:11;;;;;;;3.50;1.25;;;30.60;38.10;;;;;;2527755;54;20948;-69
2023/07/23 12:11:44;;;;;;;2.65;1.15;;;30.60;38.30;;;;;;2527516;54;20941;-70
2023/07/23 12:14:16;;;;;;;2.42;1.05;;;30.70;38.60;;;;;;2292446;55;21004;-69
2023/07/23 12:16:46;;;;;;;2.60;1.25;;;30.60;38.50;;;;;;2291264;55;20969;-69
2023/07/23 12:19:13;;;;;;;2.80;1.10;;;30.60;38.40;;;;;;2527646;54;20952;-71
2023/07/23 12:21:44;;;;;;;2.62;1.30;;;30.60;38.40;;;;;;2291694;55;21699;-68
2023/07/23 12:24:36;;;;;;;2.58;1.40;;;30.60;38.30;;;;;;2293096;55;21031;-69
2023/07/23 12:27:03;;;;;;;2.87;1.35;;;30.50;38.30;;;;;;2516641;54;21209;-70
2023/07/23 12:29:29;;;;;;;2.92;1.15;;;30.50;38.30;;;;;;2488815;54;21001;-70
2023/07/23 12:32:19;;;;;;;2.67;1.23;;;30.40;38.30;;;;;;2524628;54;21856;-68
2023/07/23 12:34:46;;;;;;;2.25;1.12;;;30.40;38.20;;;;;;2527735;54;20900;-70
2023/07/23 12:37:14;;;;;;;2.80;1.30;;;30.30;38.30;;;;;;2528614;54;20917;-69
2023/07/23 12:39:43;;;;;;;2.33;1.10;;;30.20;38.40;;;;;;2292735;55;20929;-69
2023/07/23 12:42:10;;;;;;;2.30;1.10;;;30.20;38.50;;;;;;2528559;54;20964;-69
2023/07/23 12:44:36;;;;;;;2.50;1.20;;;30.20;38.70;;;;;;2527728;54;20893;-68
2023/07/23 12:47:02;;;;;;;3.33;1.33;;;30.10;38.70;;;;;;2527995;54;20945;-73
2023/07/23 12:49:31;;;;;;;2.37;1.15;;;30.10;38.50;;;;;;2527522;54;21468;-71
2023/07/23 12:51:59;;;;;;;2.58;1.17;;;30.10;38.50;;;;;;2292405;55;20975;-69
2023/07/23 12:54:25;;;;;;;3.12;1.33;;;30.00;38.40;;;;;;2528052;54;20940;-67
2023/07/23 12:56:53;;;;;;;2.80;1.35;;;30.00;38.50;;;;;;2285271;55;21840;-68
2023/07/23 12:59:19;;;;;;;3.90;1.20;;;30.00;38.50;;;;;;2515947;54;21295;-68
2023/07/23 13:01:48;;;;;;;2.72;1.30;;;30.00;38.60;;;;;;2292962;55;21015;-67
2023/07/23 13:04:20;;;;;;;3.40;1.62;;;29.90;38.50;;;;;;2528737;54;20937;-68